Shalersville, Ohio
Current Conditions -  °F | °C
As of 5:00 AM on Friday 28 Nov 2014 (Local Time) from KPOV Reporting Station
Clear Clear  
Wind Chill: 10°   Ceiling: Unl
Heat Index: 22°   Visibility: 10mi
Dew Point: 12°   Wind: 14mph
Humidity: 65%   Direction: 270°W
Pressure: 30.27"   Gusts: 20mph
Location:  41.2966°N, 81.2269°W
Report Text: KPOV 281000Z AUTO 27012G17KT 10SM CLR M05/M11 A3027 RMK AO2 T10531110
Loading
Personal Weather Stations






























Interactive Weather Map New forecast layout! Learn more

10-Day Weather Forecast

Advertisements
Track Severe Weather on mobile